Time;durP1;ratioP1;P1;durP2;ratioP2;P2;SDS_P1;SDS_P2;PMS_P1;PMS_P2;Temp;Humidity;BMP_temperature;BMP_pressure;BME280_temperature;BME280_humidity;BME280_pressure;Samples;Min_cycle;Max_cycle;Signal;HPM_P1;HPM_P2
2022/10/07 00:00:21;;;;;;;1.60;1.50;;;6.20;99.90;;;;;;474969;250;27537;-64
2022/10/07 00:02:22;;;;;;;1.42;1.23;;;6.20;99.90;;;;;;474998;250;27524;-62
2022/10/07 00:04:23;;;;;;;1.50;1.40;;;6.10;99.90;;;;;;474994;250;28022;-63
2022/10/07 00:06:25;;;;;;;1.50;1.40;;;6.10;99.90;;;;;;474969;250;28003;-64
2022/10/07 00:08:26;;;;;;;2.65;1.40;;;6.10;99.90;;;;;;474964;246;27571;-63
2022/10/07 00:10:28;;;;;;;1.48;1.37;;;6.00;99.90;;;;;;474990;250;27541;-62
2022/10/07 00:12:28;;;;;;;1.73;1.45;;;6.00;99.90;;;;;;474977;250;27524;-62
2022/10/07 00:14:30;;;;;;;1.40;1.20;;;6.00;99.90;;;;;;474997;250;27620;-62
2022/10/07 00:16:31;;;;;;;1.40;1.30;;;5.90;99.90;;;;;;474964;250;27546;-63
2022/10/07 00:18:32;;;;;;;2.65;1.33;;;5.90;99.90;;;;;;474991;250;27967;-62
2022/10/07 00:20:33;;;;;;;3.53;1.30;;;5.90;99.90;;;;;;474972;250;28373;-62
2022/10/07 00:22:35;;;;;;;2.55;1.70;;;6.00;99.90;;;;;;474993;250;28010;-62
2022/10/07 00:24:36;;;;;;;1.25;1.25;;;5.90;99.90;;;;;;474991;250;27531;-63
2022/10/07 00:26:37;;;;;;;2.78;1.40;;;6.00;99.90;;;;;;474951;250;27535;-63
2022/10/07 00:28:38;;;;;;;5.30;1.45;;;5.90;99.90;;;;;;474994;250;27530;-63
2022/10/07 00:30:40;;;;;;;5.25;1.60;;;5.90;99.90;;;;;;474998;250;27536;-62
2022/10/07 00:32:41;;;;;;;1.45;1.40;;;5.90;99.90;;;;;;474973;250;27539;-63
2022/10/07 00:34:42;;;;;;;5.03;1.45;;;5.90;99.90;;;;;;474975;250;27576;-63
2022/10/07 00:36:43;;;;;;;1.60;1.50;;;5.90;99.90;;;;;;474939;250;28099;-62
2022/10/07 00:38:45;;;;;;;1.70;1.60;;;5.90;99.90;;;;;;475011;250;28008;-62
2022/10/07 00:40:46;;;;;;;1.40;1.30;;;5.80;99.90;;;;;;474986;250;27536;-62
2022/10/07 00:42:47;;;;;;;2.30;1.25;;;5.80;99.90;;;;;;474987;247;27538;-64
2022/10/07 00:44:48;;;;;;;2.50;1.60;;;5.80;99.90;;;;;;475007;250;27604;-62
2022/10/07 00:46:52;;;;;;;1.75;1.62;;;5.80;99.90;;;;;;474961;250;27607;-63
2022/10/07 00:48:51;;;;;;;1.30;1.30;;;5.90;99.90;;;;;;474897;250;27532;-62
2022/10/07 00:50:52;;;;;;;1.55;1.45;;;5.90;99.90;;;;;;475002;250;27546;-62
2022/10/07 00:52:53;;;;;;;1.33;1.33;;;5.90;99.90;;;;;;474961;250;28070;-64
2022/10/07 00:54:55;;;;;;;1.10;1.10;;;5.90;99.90;;;;;;474978;246;28001;-63
2022/10/07 00:56:58;;;;;;;1.50;1.37;;;5.90;99.90;;;;;;474973;250;27544;-63
2022/10/07 00:59:00;;;;;;;2.00;1.40;;;5.90;99.90;;;;;;474891;245;27604;-62
2022/10/07 01:01:01;;;;;;;1.90;1.48;;;5.90;99.90;;;;;;475009;250;27527;-62
2022/10/07 01:03:03;;;;;;;1.60;1.50;;;5.90;99.90;;;;;;475009;250;27516;-63
2022/10/07 01:05:04;;;;;;;2.30;1.40;;;5.90;99.90;;;;;;474960;250;27538;-63
2022/10/07 01:07:05;;;;;;;1.52;1.42;;;5.90;99.90;;;;;;474967;250;27532;-63
2022/10/07 01:09:06;;;;;;;1.92;1.55;;;6.00;99.90;;;;;;474975;250;28016;-63
2022/10/07 01:11:12;;;;;;;1.45;1.40;;;6.00;99.90;;;;;;474994;250;28424;-63
2022/10/07 01:13:09;;;;;;;1.60;1.45;;;6.00;99.90;;;;;;474727;250;27524;-63
2022/10/07 01:15:10;;;;;;;2.65;1.40;;;6.00;99.90;;;;;;474950;250;27578;-64
2022/10/07 01:17:12;;;;;;;1.58;1.48;;;6.00;99.90;;;;;;474963;250;27517;-62
2022/10/07 01:19:13;;;;;;;1.50;1.40;;;6.00;99.90;;;;;;474995;250;27526;-62
2022/10/07 01:21:14;;;;;;;1.83;1.70;;;6.00;99.90;;;;;;474984;250;27528;-64
2022/10/07 01:23:15;;;;;;;1.37;1.30;;;5.90;99.90;;;;;;474987;250;27542;-63
2022/10/07 01:25:17;;;;;;;2.17;1.60;;;5.90;99.90;;;;;;474968;250;28007;-62
2022/10/07 01:27:18;;;;;;;1.75;1.45;;;5.90;99.90;;;;;;474942;250;28074;-63
2022/10/07 01:29:19;;;;;;;1.77;1.67;;;5.90;99.90;;;;;;475005;250;27534;-62
2022/10/07 01:31:20;;;;;;;1.50;1.40;;;5.80;99.90;;;;;;474990;250;27548;-62
2022/10/07 01:33:22;;;;;;;1.67;1.40;;;5.80;99.90;;;;;;474981;250;27514;-62
2022/10/07 01:35:23;;;;;;;1.70;1.50;;;5.80;99.90;;;;;;474970;250;27517;-63
2022/10/07 01:37:24;;;;;;;1.55;1.20;;;5.80;99.90;;;;;;474942;250;27508;-62
2022/10/07 01:39:25;;;;;;;1.30;1.20;;;5.80;99.90;;;;;;474978;250;27548;-63
2022/10/07 01:41:27;;;;;;;1.50;1.40;;;5.70;99.90;;;;;;474997;250;28019;-64
2022/10/07 01:43:28;;;;;;;1.50;1.40;;;5.70;99.90;;;;;;475021;250;28085;-62
2022/10/07 01:45:29;;;;;;;2.10;1.40;;;5.70;99.90;;;;;;474985;250;27523;-62
2022/10/07 01:47:30;;;;;;;1.60;1.50;;;5.60;99.90;;;;;;474934;246;27535;-63
2022/10/07 01:49:32;;;;;;;1.42;1.37;;;5.50;99.90;;;;;;474992;250;27625;-63
2022/10/07 01:51:33;;;;;;;1.70;1.55;;;5.50;99.90;;;;;;474967;250;27620;-64
2022/10/07 01:53:34;;;;;;;1.73;1.40;;;5.60;99.90;;;;;;474942;250;27511;-62
2022/10/07 01:55:35;;;;;;;1.67;1.58;;;5.60;99.90;;;;;;474967;250;27528;-62
2022/10/07 01:57:37;;;;;;;1.60;1.50;;;5.60;99.90;;;;;;474929;246;27626;-62
2022/10/07 01:59:38;;;;;;;1.50;1.40;;;5.60;99.90;;;;;;474953;250;27979;-63
2022/10/07 02:01:39;;;;;;;1.40;1.30;;;5.60;99.90;;;;;;474984;250;27978;-63
2022/10/07 02:03:41;;;;;;;3.10;1.40;;;5.70;99.90;;;;;;474964;250;27978;-62
2022/10/07 02:05:42;;;;;;;1.20;1.20;;;5.70;99.90;;;;;;474920;250;27539;-63
2022/10/07 02:07:43;;;;;;;1.45;1.35;;;5.70;99.90;;;;;;474924;250;27531;-62
2022/10/07 02:09:44;;;;;;;2.80;1.30;;;5.70;99.90;;;;;;474960;250;27524;-63
2022/10/07 02:11:45;;;;;;;2.08;1.62;;;5.80;99.90;;;;;;474984;250;27634;-63
2022/10/07 02:13:47;;;;;;;1.40;1.30;;;5.70;99.90;;;;;;474966;250;27593;-62
2022/10/07 02:15:48;;;;;;;1.30;1.30;;;5.70;99.90;;;;;;474988;250;27611;-63
2022/10/07 02:17:49;;;;;;;1.30;1.30;;;5.80;99.90;;;;;;474962;250;28068;-62
2022/10/07 02:19:52;;;;;;;1.55;1.40;;;5.80;99.90;;;;;;474952;250;28010;-63
2022/10/07 02:21:52;;;;;;;2.58;1.40;;;5.80;99.90;;;;;;474910;250;27548;-63
2022/10/07 02:23:53;;;;;;;1.60;1.30;;;5.80;99.90;;;;;;474977;250;27602;-62
2022/10/07 02:25:54;;;;;;;1.60;1.48;;;5.80;99.90;;;;;;474962;250;27616;-62
2022/10/07 02:27:55;;;;;;;1.50;1.40;;;5.90;99.90;;;;;;474942;250;27615;-62
2022/10/07 02:29:57;;;;;;;1.37;1.20;;;5.90;99.90;;;;;;474979;250;27619;-63
2022/10/07 02:31:58;;;;;;;1.58;1.48;;;6.00;99.90;;;;;;474964;250;27642;-63
2022/10/07 02:33:59;;;;;;;1.30;1.20;;;6.00;99.90;;;;;;474988;250;27536;-62
2022/10/07 02:36:01;;;;;;;1.20;1.20;;;6.00;99.90;;;;;;474973;250;28020;-63
2022/10/07 02:38:02;;;;;;;3.35;1.55;;;6.00;99.90;;;;;;474989;250;27632;-63
2022/10/07 02:40:03;;;;;;;1.73;1.60;;;6.00;99.90;;;;;;474991;250;27519;-62
2022/10/07 02:42:04;;;;;;;1.50;1.40;;;6.00;99.90;;;;;;474957;250;27540;-62
2022/10/07 02:44:06;;;;;;;1.92;1.40;;;6.00;99.90;;;;;;474991;250;27611;-62
2022/10/07 02:46:07;;;;;;;3.25;1.52;;;6.00;99.90;;;;;;474940;250;27533;-65
2022/10/07 02:48:08;;;;;;;1.33;1.23;;;6.00;99.90;;;;;;474983;250;27528;-64
2022/10/07 02:50:09;;;;;;;1.42;1.33;;;6.00;99.90;;;;;;474989;250;27964;-63
2022/10/07 02:52:11;;;;;;;1.60;1.20;;;5.90;99.90;;;;;;474977;250;27991;-63
2022/10/07 02:54:12;;;;;;;3.10;1.60;;;5.90;99.90;;;;;;474971;250;27531;-62
2022/10/07 02:56:13;;;;;;;1.87;1.35;;;5.90;99.90;;;;;;474950;250;27516;-62
2022/10/07 02:58:14;;;;;;;1.55;1.45;;;5.90;99.90;;;;;;474978;250;27547;-65
2022/10/07 03:00:16;;;;;;;2.87;1.70;;;5.90;99.90;;;;;;474981;250;27540;-62
2022/10/07 03:02:17;;;;;;;4.50;1.30;;;5.90;99.90;;;;;;474989;250;27657;-63
2022/10/07 03:04:20;;;;;;;1.62;1.52;;;5.90;99.90;;;;;;474941;250;27523;-62
2022/10/07 03:06:19;;;;;;;1.40;1.30;;;5.90;99.90;;;;;;474849;250;27983;-62
2022/10/07 03:08:21;;;;;;;2.20;1.40;;;6.00;99.90;;;;;;474944;250;27978;-63
2022/10/07 03:10:22;;;;;;;1.35;1.35;;;6.00;99.90;;;;;;474954;250;27520;-62
2022/10/07 03:12:23;;;;;;;1.65;1.20;;;6.00;99.90;;;;;;474988;250;27541;-63
2022/10/07 03:14:24;;;;;;;1.20;1.20;;;6.00;99.90;;;;;;474955;250;27525;-62
2022/10/07 03:16:26;;;;;;;1.15;1.15;;;5.90;99.90;;;;;;474939;250;27606;-63
2022/10/07 03:18:28;;;;;;;2.45;1.40;;;5.90;99.90;;;;;;474993;250;27611;-63
2022/10/07 03:20:29;;;;;;;2.35;1.65;;;5.90;99.90;;;;;;474933;250;27606;-63
2022/10/07 03:22:29;;;;;;;1.33;1.25;;;5.90;99.90;;;;;;474951;250;27636;-63
2022/10/07 03:24:31;;;;;;;8.93;1.60;;;5.80;99.90;;;;;;474968;250;28376;-62
2022/10/07 03:26:32;;;;;;;4.72;1.30;;;5.70;99.90;;;;;;474943;250;28082;-63
2022/10/07 03:28:34;;;;;;;1.40;1.30;;;5.70;99.90;;;;;;474974;250;27530;-63
2022/10/07 03:30:34;;;;;;;1.52;1.42;;;5.70;99.90;;;;;;474895;250;27536;-62
2022/10/07 03:32:36;;;;;;;2.50;1.35;;;5.60;99.90;;;;;;474983;250;27554;-63
2022/10/07 03:34:37;;;;;;;1.20;1.20;;;5.60;99.90;;;;;;474982;250;27520;-62
2022/10/07 03:36:38;;;;;;;1.37;1.37;;;5.60;99.90;;;;;;474887;250;27524;-62
2022/10/07 03:38:39;;;;;;;1.40;1.30;;;5.70;99.90;;;;;;474977;250;27635;-63
2022/10/07 03:40:41;;;;;;;1.20;1.20;;;5.60;99.90;;;;;;474955;246;28178;-62
2022/10/07 03:42:42;;;;;;;1.62;1.50;;;5.60;99.90;;;;;;474984;250;28083;-63
2022/10/07 03:44:44;;;;;;;1.20;1.20;;;5.60;99.90;;;;;;474974;250;28415;-62
2022/10/07 03:46:44;;;;;;;1.65;1.55;;;5.70;99.90;;;;;;474893;250;27520;-63
2022/10/07 03:48:46;;;;;;;1.30;1.30;;;5.60;99.90;;;;;;474976;250;27620;-63
2022/10/07 03:50:47;;;;;;;1.67;1.30;;;5.60;99.90;;;;;;474959;250;27637;-62
2022/10/07 03:52:48;;;;;;;6.72;1.30;;;5.60;99.90;;;;;;474956;250;27651;-62
2022/10/07 03:54:49;;;;;;;3.65;1.60;;;5.60;99.90;;;;;;474990;250;27636;-63
2022/10/07 03:56:51;;;;;;;1.80;1.40;;;5.60;99.90;;;;;;474923;250;27623;-63
2022/10/07 03:58:52;;;;;;;1.50;1.40;;;5.60;99.90;;;;;;474977;250;27624;-62
2022/10/07 04:00:53;;;;;;;1.50;1.40;;;5.50;99.90;;;;;;475042;250;27924;-62
2022/10/07 04:02:54;;;;;;;1.70;1.60;;;5.50;99.90;;;;;;475137;250;28167;-62
2022/10/07 04:04:56;;;;;;;1.60;1.50;;;5.50;99.90;;;;;;475189;250;27539;-62
2022/10/07 04:06:57;;;;;;;1.40;1.40;;;5.40;99.90;;;;;;475135;250;27585;-64
2022/10/07 04:08:58;;;;;;;5.30;1.35;;;5.40;99.90;;;;;;475110;250;27641;-63
2022/10/07 04:10:59;;;;;;;1.50;1.40;;;5.40;99.90;;;;;;475157;250;27522;-62
2022/10/07 04:13:01;;;;;;;1.50;1.40;;;5.30;99.90;;;;;;475129;250;27642;-63
2022/10/07 04:15:02;;;;;;;3.17;1.90;;;5.30;99.90;;;;;;475150;250;27546;-64
2022/10/07 04:17:03;;;;;;;1.60;1.50;;;5.40;99.90;;;;;;475127;250;27592;-63
2022/10/07 04:19:04;;;;;;;2.53;1.70;;;5.40;99.90;;;;;;474983;250;27484;-63
2022/10/07 04:21:06;;;;;;;1.60;1.50;;;5.40;99.90;;;;;;474988;246;28064;-63
2022/10/07 04:23:07;;;;;;;1.60;1.50;;;5.40;99.90;;;;;;474993;250;27984;-62
2022/10/07 04:27:27;;;;;;;1.90;1.65;;;5.40;99.90;;;;;;474956;246;27513;-63
2022/10/07 04:29:29;;;;;;;1.52;1.42;;;5.40;99.90;;;;;;475774;246;27615;-63
2022/10/07 04:31:30;;;;;;;2.42;1.60;;;5.30;99.90;;;;;;474980;250;27575;-62
2022/10/07 04:33:31;;;;;;;1.73;1.62;;;5.20;99.90;;;;;;474972;250;27537;-62
2022/10/07 04:35:32;;;;;;;2.08;1.70;;;5.10;99.90;;;;;;474972;250;27591;-62
2022/10/07 04:37:34;;;;;;;2.15;1.50;;;5.10;99.90;;;;;;474946;250;28096;-62
2022/10/07 04:39:35;;;;;;;1.70;1.60;;;5.10;99.90;;;;;;474966;250;28024;-63
2022/10/07 04:41:36;;;;;;;1.60;1.50;;;5.20;99.90;;;;;;474957;246;28133;-63
2022/10/07 04:43:37;;;;;;;1.87;1.77;;;5.20;99.90;;;;;;474997;250;27540;-63
2022/10/07 04:45:39;;;;;;;2.20;2.00;;;5.30;99.90;;;;;;474965;250;27554;-62
2022/10/07 04:47:40;;;;;;;3.12;1.80;;;5.30;99.90;;;;;;483218;246;27317;-62
2022/10/07 04:49:41;;;;;;;2.17;1.98;;;5.30;99.90;;;;;;483853;246;27395;-64
2022/10/07 04:51:42;;;;;;;1.73;1.62;;;5.40;99.90;;;;;;483842;246;27355;-62
2022/10/07 04:53:44;;;;;;;2.05;1.73;;;5.40;99.90;;;;;;483854;246;27382;-63
2022/10/07 04:55:45;;;;;;;1.90;1.80;;;5.50;99.90;;;;;;483853;246;27486;-63
2022/10/07 04:57:46;;;;;;;1.75;1.65;;;5.50;99.90;;;;;;483828;246;27416;-63
2022/10/07 04:59:47;;;;;;;1.90;1.80;;;5.50;99.90;;;;;;483866;246;27960;-65
2022/10/07 05:01:49;;;;;;;2.00;1.90;;;5.40;99.90;;;;;;483852;246;27873;-63
2022/10/07 05:03:50;;;;;;;2.17;1.90;;;5.40;99.90;;;;;;483859;246;27949;-63
2022/10/07 05:05:51;;;;;;;1.70;1.60;;;5.40;99.90;;;;;;483866;246;27380;-62
2022/10/07 05:07:53;;;;;;;1.75;1.65;;;5.40;99.90;;;;;;483803;246;27376;-62
2022/10/07 05:09:54;;;;;;;1.80;1.70;;;5.50;99.90;;;;;;483741;246;27382;-63
2022/10/07 05:11:55;;;;;;;2.00;1.70;;;5.50;99.90;;;;;;483859;246;27467;-63
2022/10/07 05:13:57;;;;;;;2.28;1.80;;;5.40;99.90;;;;;;483837;246;27472;-63
2022/10/07 05:15:57;;;;;;;1.75;1.65;;;5.40;99.90;;;;;;483860;246;27379;-64
2022/10/07 05:17:59;;;;;;;1.95;1.80;;;5.40;99.90;;;;;;483811;246;27371;-62
2022/10/07 05:20:00;;;;;;;2.15;2.03;;;5.40;99.90;;;;;;483852;246;27863;-63
2022/10/07 05:22:05;;;;;;;2.08;1.92;;;5.30;99.90;;;;;;483862;246;27953;-63
2022/10/07 05:24:02;;;;;;;2.30;2.10;;;5.30;99.90;;;;;;483418;246;27403;-63
2022/10/07 05:26:06;;;;;;;3.20;2.28;;;5.20;99.90;;;;;;483848;246;27385;-66
2022/10/07 05:28:05;;;;;;;2.00;1.90;;;5.30;99.90;;;;;;483724;245;27380;-63
2022/10/07 05:30:06;;;;;;;1.70;1.58;;;5.30;99.90;;;;;;483834;246;27395;-64
2022/10/07 05:32:08;;;;;;;2.28;2.10;;;5.30;99.90;;;;;;483854;246;27460;-63
2022/10/07 05:34:09;;;;;;;2.17;2.00;;;5.30;99.90;;;;;;483832;246;27485;-63
2022/10/07 05:36:11;;;;;;;2.00;1.90;;;5.20;99.90;;;;;;483803;246;27388;-64
2022/10/07 05:38:12;;;;;;;3.03;2.15;;;5.20;99.90;;;;;;483845;246;27403;-63
2022/10/07 05:40:12;;;;;;;2.35;2.17;;;5.20;99.90;;;;;;483834;246;27852;-64
2022/10/07 05:42:14;;;;;;;2.03;1.90;;;5.30;99.90;;;;;;483866;244;27839;-63
2022/10/07 05:44:15;;;;;;;2.25;1.85;;;5.20;99.90;;;;;;483839;246;27970;-64
2022/10/07 05:46:16;;;;;;;2.00;1.90;;;5.20;99.90;;;;;;483809;246;27395;-64
2022/10/07 05:48:17;;;;;;;2.30;2.20;;;5.30;99.90;;;;;;480164;246;27368;-62
2022/10/07 05:50:19;;;;;;;5.70;2.53;;;5.20;99.90;;;;;;474969;250;27539;-63
2022/10/07 05:52:20;;;;;;;2.40;2.20;;;5.30;99.90;;;;;;474963;250;27630;-63
2022/10/07 05:54:21;;;;;;;2.50;2.40;;;5.20;99.90;;;;;;474970;250;27975;-63
2022/10/07 05:56:23;;;;;;;2.92;2.72;;;5.20;99.90;;;;;;474383;250;28703;-64
2022/10/07 05:58:24;;;;;;;3.08;2.87;;;5.20;99.90;;;;;;474981;250;27972;-62
2022/10/07 06:00:25;;;;;;;2.30;2.20;;;5.30;99.90;;;;;;474991;250;27628;-63
2022/10/07 06:02:27;;;;;;;2.78;2.58;;;5.30;99.90;;;;;;474965;250;27531;-63
2022/10/07 06:04:28;;;;;;;2.80;2.62;;;5.30;99.90;;;;;;474986;250;27992;-63
2022/10/07 06:06:29;;;;;;;2.30;2.20;;;5.30;99.90;;;;;;474675;247;27931;-63
2022/10/07 06:08:30;;;;;;;2.00;1.90;;;5.30;99.90;;;;;;474905;250;27580;-62
2022/10/07 06:13:09;;;;;;;2.50;2.30;;;5.30;99.90;;;;;;475169;246;28535;-65
2022/10/07 06:15:10;;;;;;;2.20;2.10;;;5.30;99.90;;;;;;477364;246;27571;-66
2022/10/07 06:17:11;;;;;;;2.00;1.90;;;5.30;99.90;;;;;;478319;246;27966;-67
2022/10/07 06:19:21;;;;;;;2.05;1.95;;;5.30;99.90;;;;;;475126;246;28426;-67
2022/10/07 06:21:14;;;;;;;2.42;2.22;;;5.30;99.90;;;;;;476480;246;27983;-67
2022/10/07 06:23:15;;;;;;;2.95;1.98;;;5.30;99.90;;;;;;477147;246;27486;-70
2022/10/07 06:25:17;;;;;;;1.87;1.77;;;5.30;99.90;;;;;;474761;246;27487;-64
2022/10/07 06:27:17;;;;;;;3.67;1.80;;;5.20;99.90;;;;;;484402;237;27559;-65
2022/10/07 06:29:19;;;;;;;1.95;1.70;;;5.30;99.90;;;;;;483559;245;27468;-65
2022/10/07 06:31:22;;;;;;;1.70;1.70;;;5.30;99.90;;;;;;483651;246;27470;-65
2022/10/07 06:33:21;;;;;;;1.60;1.60;;;5.30;99.90;;;;;;483560;246;27395;-68
2022/10/07 06:35:22;;;;;;;1.90;1.80;;;5.30;99.90;;;;;;483685;246;27380;-64
2022/10/07 06:39:34;;;;;;;2.00;1.80;;;5.40;99.90;;;;;;467408;250;27463;-68
2022/10/07 06:41:35;;;;;;;1.92;1.83;;;5.50;99.90;;;;;;466676;253;27426;-68
2022/10/07 06:43:36;;;;;;;2.03;1.92;;;5.50;99.90;;;;;;466233;252;27613;-67
2022/10/07 06:45:37;;;;;;;1.85;1.65;;;5.50;99.90;;;;;;466265;252;27618;-65
2022/10/07 06:47:39;;;;;;;1.67;1.58;;;5.50;99.90;;;;;;466244;252;27532;-65
2022/10/07 06:49:40;;;;;;;1.90;1.80;;;5.60;99.90;;;;;;466177;252;27551;-66
2022/10/07 06:51:41;;;;;;;1.98;1.80;;;5.50;99.90;;;;;;466199;252;27982;-65
2022/10/07 06:53:42;;;;;;;1.80;1.80;;;5.60;99.90;;;;;;466244;252;28000;-65
2022/10/07 06:55:44;;;;;;;1.85;1.75;;;5.60;99.90;;;;;;466209;252;27997;-67
2022/10/07 06:57:45;;;;;;;1.75;1.65;;;5.70;99.90;;;;;;466230;252;27622;-68
2022/10/07 06:59:46;;;;;;;1.95;1.85;;;5.70;99.90;;;;;;466260;252;27546;-70
2022/10/07 07:01:47;;;;;;;2.05;1.95;;;5.80;99.90;;;;;;466260;252;27650;-68
2022/10/07 07:03:49;;;;;;;1.90;1.80;;;5.80;99.90;;;;;;466223;252;27640;-68
2022/10/07 07:05:53;;;;;;;1.83;1.65;;;5.90;99.90;;;;;;466253;252;27530;-67
2022/10/07 07:07:54;;;;;;;1.67;1.58;;;6.00;99.90;;;;;;466685;251;27502;-69
2022/10/07 07:09:55;;;;;;;1.67;1.50;;;6.00;99.90;;;;;;469903;253;27510;-65
2022/10/07 07:11:57;;;;;;;1.60;1.50;;;6.10;99.90;;;;;;469882;253;27958;-68
2022/10/07 07:13:58;;;;;;;1.70;1.60;;;6.10;99.90;;;;;;469897;253;28028;-67
2022/10/07 07:15:59;;;;;;;1.70;1.40;;;6.20;99.90;;;;;;469865;253;27505;-67
2022/10/07 07:18:00;;;;;;;1.73;1.62;;;6.20;99.90;;;;;;469860;253;27599;-69
2022/10/07 07:20:02;;;;;;;2.50;1.70;;;6.30;99.90;;;;;;466329;253;27526;-67
2022/10/07 07:22:04;;;;;;;2.83;1.40;;;6.30;99.90;;;;;;466266;252;27519;-68
2022/10/07 07:24:04;;;;;;;1.80;1.70;;;6.30;99.90;;;;;;466217;253;27535;-65
2022/10/07 07:26:05;;;;;;;1.77;1.67;;;6.40;99.90;;;;;;466237;252;28053;-65
2022/10/07 07:28:07;;;;;;;1.90;1.80;;;6.40;99.90;;;;;;466270;252;27998;-67
2022/10/07 07:30:08;;;;;;;1.90;1.80;;;6.40;99.90;;;;;;466146;252;27537;-65
2022/10/07 07:32:09;;;;;;;1.60;1.60;;;6.30;99.90;;;;;;464536;252;27535;-65
2022/10/07 07:34:10;;;;;;;1.90;1.80;;;6.40;99.90;;;;;;464705;253;27603;-68
2022/10/07 07:36:14;;;;;;;1.98;1.50;;;6.50;99.90;;;;;;466415;252;27518;-68
2022/10/07 07:38:13;;;;;;;4.82;1.60;;;6.50;99.90;;;;;;462706;256;27563;-69
2022/10/07 07:40:14;;;;;;;2.00;1.90;;;6.70;99.90;;;;;;462005;256;27982;-68
2022/10/07 07:42:16;;;;;;;1.60;1.60;;;6.70;99.90;;;;;;461799;255;28018;-68
2022/10/07 07:44:17;;;;;;;1.80;1.70;;;6.80;99.90;;;;;;461807;255;27845;-67
2022/10/07 07:46:18;;;;;;;1.70;1.60;;;6.90;99.90;;;;;;461787;255;27637;-67
2022/10/07 07:48:19;;;;;;;1.87;1.77;;;7.00;99.90;;;;;;461809;255;27671;-69
2022/10/07 07:50:25;;;;;;;2.03;1.70;;;7.10;99.90;;;;;;461830;255;27626;-67
2022/10/07 07:52:24;;;;;;;1.63;1.47;;;7.20;99.90;;;;;;461563;257;27576;-68
2022/10/07 07:54:26;;;;;;;1.67;1.58;;;7.30;99.90;;;;;;461699;257;28936;-67
2022/10/07 07:56:24;;;;;;;1.58;1.48;;;7.40;99.90;;;;;;461659;257;28016;-68
2022/10/07 07:58:26;;;;;;;1.30;1.30;;;7.50;99.90;;;;;;461565;255;28380;-76
2022/10/07 08:00:27;;;;;;;1.53;1.50;;;7.50;99.90;;;;;;452549;257;29541;-67
2022/10/07 08:02:28;;;;;;;1.63;1.53;;;7.60;99.90;;;;;;452517;262;29353;-68
2022/10/07 08:04:29;;;;;;;1.80;1.70;;;7.60;99.90;;;;;;452328;262;29511;-69
2022/10/07 08:06:31;;;;;;;1.67;1.50;;;7.70;99.90;;;;;;452447;262;27567;-71
2022/10/07 08:08:32;;;;;;;2.85;1.70;;;7.90;99.90;;;;;;452434;263;27481;-71
2022/10/07 08:10:33;;;;;;;2.10;1.70;;;8.00;99.90;;;;;;452498;262;27509;-67
2022/10/07 08:12:34;;;;;;;1.83;1.73;;;8.10;99.90;;;;;;452548;261;27714;-69
2022/10/07 08:14:36;;;;;;;1.87;1.77;;;8.10;99.90;;;;;;452545;260;27604;-68
2022/10/07 08:16:37;;;;;;;1.63;1.57;;;8.10;99.90;;;;;;452482;263;28074;-68
2022/10/07 08:18:38;;;;;;;1.70;1.60;;;8.10;99.90;;;;;;452540;262;28142;-68
2022/10/07 08:20:39;;;;;;;1.90;1.80;;;8.10;99.90;;;;;;452531;262;28281;-68
2022/10/07 08:22:44;;;;;;;1.60;1.50;;;8.20;99.90;;;;;;452538;263;29365;-68
2022/10/07 08:24:42;;;;;;;1.70;1.60;;;8.30;99.90;;;;;;452365;262;28446;-72
2022/10/07 08:26:43;;;;;;;1.73;1.60;;;8.30;99.90;;;;;;452515;262;28608;-68
2022/10/07 08:28:45;;;;;;;2.07;1.87;;;8.40;99.90;;;;;;452510;263;28342;-69
2022/10/07 08:30:46;;;;;;;1.70;1.60;;;8.50;99.90;;;;;;452533;258;27987;-67
2022/10/07 08:32:47;;;;;;;2.47;1.60;;;8.40;99.90;;;;;;452538;262;28201;-68
2022/10/07 08:34:48;;;;;;;2.80;1.70;;;8.50;99.90;;;;;;452342;257;27582;-71
2022/10/07 08:36:50;;;;;;;1.90;1.50;;;8.60;99.90;;;;;;452468;262;28074;-68
2022/10/07 08:38:51;;;;;;;1.77;1.67;;;8.60;99.90;;;;;;452491;262;27982;-69
2022/10/07 08:40:52;;;;;;;1.87;1.43;;;8.70;99.90;;;;;;461143;256;28172;-67
2022/10/07 08:42:53;;;;;;;2.10;1.90;;;8.70;99.90;;;;;;465247;253;27933;-68
2022/10/07 08:44:54;;;;;;;1.50;1.40;;;8.80;99.90;;;;;;465230;253;27978;-70
2022/10/07 08:46:56;;;;;;;1.67;1.57;;;8.80;99.90;;;;;;465216;253;28044;-68
2022/10/07 08:48:57;;;;;;;1.60;1.50;;;8.90;99.90;;;;;;465266;253;27931;-68
2022/10/07 08:50:58;;;;;;;1.70;1.60;;;9.00;99.90;;;;;;465253;253;27818;-68
2022/10/07 08:53:00;;;;;;;1.70;1.60;;;9.00;99.90;;;;;;465256;253;27925;-68
2022/10/07 08:55:01;;;;;;;1.90;1.70;;;9.00;99.90;;;;;;465229;253;27908;-69
2022/10/07 08:57:02;;;;;;;1.70;1.60;;;9.10;99.90;;;;;;465190;254;27980;-67
2022/10/07 08:59:03;;;;;;;1.70;1.60;;;9.00;99.90;;;;;;465254;253;27912;-67
2022/10/07 09:01:05;;;;;;;1.70;1.60;;;9.10;99.90;;;;;;465269;253;28451;-67
2022/10/07 09:03:06;;;;;;;1.60;1.50;;;9.20;99.90;;;;;;461491;253;28452;-67
2022/10/07 09:05:07;;;;;;;1.57;1.47;;;9.20;99.90;;;;;;469432;252;28461;-71
2022/10/07 09:07:08;;;;;;;1.50;1.43;;;9.40;99.90;;;;;;471180;251;28484;-67
2022/10/07 09:09:10;;;;;;;1.70;1.60;;;9.40;99.90;;;;;;469613;253;27888;-67
2022/10/07 09:11:18;;;;;;;1.77;1.60;;;9.40;99.90;;;;;;469607;253;27905;-67
2022/10/07 09:13:19;;;;;;;1.60;1.50;;;9.50;99.90;;;;;;469496;253;27926;-67
2022/10/07 09:15:19;;;;;;;1.73;1.63;;;9.60;99.90;;;;;;469524;253;27945;-70
2022/10/07 09:17:20;;;;;;;1.80;1.43;;;9.60;99.90;;;;;;469549;253;27540;-67
2022/10/07 09:19:21;;;;;;;1.50;1.40;;;9.70;99.90;;;;;;469594;253;28130;-68
2022/10/07 09:21:24;;;;;;;1.63;1.53;;;9.80;99.90;;;;;;469581;253;27750;-67
2022/10/07 09:23:24;;;;;;;2.03;1.60;;;10.00;99.90;;;;;;469544;253;27808;-67
2022/10/07 09:25:25;;;;;;;4.17;1.60;;;10.10;99.90;;;;;;469564;253;27925;-68
2022/10/07 09:27:29;;;;;;;2.30;1.50;;;;;;;;;;469550;253;27993;-67
2022/10/07 09:29:31;;;;;;;2.40;1.50;;;;;;;;;;469610;251;27226;-67
2022/10/07 09:31:32;;;;;;;1.70;1.50;;;10.50;99.90;;;;;;469582;253;27381;-69
2022/10/07 09:33:34;;;;;;;1.93;1.50;;;10.50;99.90;;;;;;465187;253;27935;-70
2022/10/07 09:35:37;;;;;;;1.50;1.40;;;10.50;99.90;;;;;;464839;254;27933;-67
2022/10/07 09:37:36;;;;;;;1.43;1.33;;;10.60;99.90;;;;;;465040;255;28038;-68
2022/10/07 09:39:37;;;;;;;2.23;1.90;;;10.70;99.90;;;;;;465152;253;28013;-67
2022/10/07 09:41:39;;;;;;;1.70;1.60;;;10.70;99.90;;;;;;465193;253;28265;-67
2022/10/07 09:43:40;;;;;;;1.50;1.40;;;10.70;99.90;;;;;;465164;253;28379;-69
2022/10/07 09:45:41;;;;;;;1.57;1.47;;;10.80;99.90;;;;;;465226;253;28474;-68
2022/10/07 09:47:42;;;;;;;1.30;1.20;;;10.80;99.90;;;;;;465189;253;27818;-68
2022/10/07 09:49:45;;;;;;;1.23;1.20;;;10.90;99.90;;;;;;465220;253;28034;-69
2022/10/07 09:51:45;;;;;;;2.93;1.30;;;11.00;99.90;;;;;;465200;253;28152;-68
2022/10/07 09:53:46;;;;;;;3.77;1.60;;;11.00;99.90;;;;;;465237;253;27940;-71
2022/10/07 09:55:48;;;;;;;1.50;1.40;;;11.10;99.90;;;;;;465221;253;27942;-70
2022/10/07 09:57:49;;;;;;;1.87;1.53;;;11.20;99.90;;;;;;465176;253;28059;-68
2022/10/07 09:59:50;;;;;;;1.30;1.20;;;11.30;99.90;;;;;;465224;253;27975;-68
2022/10/07 10:01:51;;;;;;;1.50;1.40;;;11.30;99.90;;;;;;465134;253;27706;-68
2022/10/07 10:03:52;;;;;;;2.63;1.40;;;11.40;99.90;;;;;;465195;254;28231;-70
2022/10/07 10:05:54;;;;;;;1.40;1.30;;;11.50;99.90;;;;;;465255;254;28134;-67
2022/10/07 10:07:55;;;;;;;1.73;1.40;;;11.60;99.90;;;;;;465203;254;28242;-68
2022/10/07 10:09:56;;;;;;;2.50;1.60;;;11.70;99.90;;;;;;465228;254;27662;-67
2022/10/07 10:11:57;;;;;;;2.60;1.30;;;11.90;99.90;;;;;;465205;254;28020;-68
2022/10/07 10:13:59;;;;;;;2.30;1.50;;;12.00;99.90;;;;;;465173;256;28057;-71
2022/10/07 10:16:00;;;;;;;2.50;1.50;;;12.00;99.90;;;;;;465233;253;27937;-67
2022/10/07 10:18:01;;;;;;;1.47;1.37;;;12.10;99.90;;;;;;465223;253;28586;-68
2022/10/07 10:20:02;;;;;;;3.73;1.40;;;12.10;99.90;;;;;;465158;253;28953;-68
2022/10/07 10:22:04;;;;;;;1.70;1.60;;;12.30;99.90;;;;;;465242;253;28604;-68
2022/10/07 10:24:05;;;;;;;1.77;1.50;;;12.30;99.90;;;;;;465194;253;28021;-69
2022/10/07 10:26:24;;;;;;;1.57;1.47;;;12.30;99.90;;;;;;465165;253;28118;-71
2022/10/07 10:28:31;;;;;;;1.93;1.33;;;12.20;99.90;;;;;;468414;252;28177;-70
2022/10/07 10:30:37;;;;;;;3.60;1.53;;;12.30;99.90;;;;;;468449;252;28232;-68
2022/10/07 10:32:35;;;;;;;2.10;1.57;;;12.70;99.90;;;;;;468285;253;28569;-69
2022/10/07 10:34:37;;;;;;;1.30;1.20;;;12.80;99.90;;;;;;468433;252;28618;-69
2022/10/07 10:36:37;;;;;;;3.80;2.00;;;12.80;99.90;;;;;;468378;252;28753;-68
2022/10/07 10:38:38;;;;;;;6.23;2.00;;;13.10;99.90;;;;;;466507;252;28804;-68
2022/10/07 10:40:40;;;;;;;1.67;1.20;;;13.20;99.90;;;;;;465241;253;28280;-70
2022/10/07 10:42:41;;;;;;;2.00;1.40;;;13.00;99.90;;;;;;465223;253;28140;-68
2022/10/07 10:44:42;;;;;;;1.77;1.30;;;13.10;99.90;;;;;;465209;253;28574;-70